sensor_id;sensor_type;location;lat;lon;timestamp;P1;durP1;ratioP1;P2;durP2;ratioP2
35257;SDS011;21385;50.878;8.050;2023-03-04T00:01:51;5.75;;;5.18;;
35257;SDS011;21385;50.878;8.050;2023-03-04T00:04:18;9.93;;;6.80;;
35257;SDS011;21385;50.878;8.050;2023-03-04T00:06:43;9.02;;;5.63;;
35257;SDS011;21385;50.878;8.050;2023-03-04T00:09:09;11.68;;;4.13;;
35257;SDS011;21385;50.878;8.050;2023-03-04T00:11:34;9.23;;;4.55;;
35257;SDS011;21385;50.878;8.050;2023-03-04T00:14:00;19.38;;;6.00;;
35257;SDS011;21385;50.878;8.050;2023-03-04T00:16:26;17.60;;;5.85;;
35257;SDS011;21385;50.878;8.050;2023-03-04T00:18:52;6.78;;;5.28;;
35257;SDS011;21385;50.878;8.050;2023-03-04T00:21:19;14.90;;;6.78;;
35257;SDS011;21385;50.878;8.050;2023-03-04T00:23:45;9.07;;;4.90;;
35257;SDS011;21385;50.878;8.050;2023-03-04T00:26:10;10.18;;;5.88;;
35257;SDS011;21385;50.878;8.050;2023-03-04T00:28:37;6.82;;;4.10;;
35257;SDS011;21385;50.878;8.050;2023-03-04T00:31:04;5.63;;;4.22;;
35257;SDS011;21385;50.878;8.050;2023-03-04T00:33:30;8.63;;;4.35;;
35257;SDS011;21385;50.878;8.050;2023-03-04T00:35:56;6.95;;;5.40;;
35257;SDS011;21385;50.878;8.050;2023-03-04T00:38:21;18.20;;;6.28;;
35257;SDS011;21385;50.878;8.050;2023-03-04T00:40:47;9.63;;;6.03;;
35257;SDS011;21385;50.878;8.050;2023-03-04T00:43:12;7.15;;;4.00;;
35257;SDS011;21385;50.878;8.050;2023-03-04T00:45:38;9.05;;;2.78;;
35257;SDS011;21385;50.878;8.050;2023-03-04T00:48:03;13.35;;;5.90;;
35257;SDS011;21385;50.878;8.050;2023-03-04T00:50:29;5.85;;;4.85;;
35257;SDS011;21385;50.878;8.050;2023-03-04T00:52:55;8.07;;;5.28;;
35257;SDS011;21385;50.878;8.050;2023-03-04T00:55:20;6.07;;;5.45;;
35257;SDS011;21385;50.878;8.050;2023-03-04T00:57:46;12.55;;;4.65;;
35257;SDS011;21385;50.878;8.050;2023-03-04T01:00:12;17.30;;;7.28;;
35257;SDS011;21385;50.878;8.050;2023-03-04T01:02:38;14.48;;;6.88;;
35257;SDS011;21385;50.878;8.050;2023-03-04T01:05:04;7.90;;;5.13;;
35257;SDS011;21385;50.878;8.050;2023-03-04T01:07:31;10.88;;;5.03;;
35257;SDS011;21385;50.878;8.050;2023-03-04T01:09:57;13.10;;;5.97;;
35257;SDS011;21385;50.878;8.050;2023-03-04T01:12:22;14.40;;;6.07;;
35257;SDS011;21385;50.878;8.050;2023-03-04T01:14:48;4.78;;;4.22;;
35257;SDS011;21385;50.878;8.050;2023-03-04T01:17:13;8.52;;;6.20;;
35257;SDS011;21385;50.878;8.050;2023-03-04T01:19:39;7.40;;;5.40;;
35257;SDS011;21385;50.878;8.050;2023-03-04T01:22:05;6.75;;;4.63;;
35257;SDS011;21385;50.878;8.050;2023-03-04T01:24:30;11.88;;;5.60;;
35257;SDS011;21385;50.878;8.050;2023-03-04T01:26:56;11.48;;;6.45;;
35257;SDS011;21385;50.878;8.050;2023-03-04T01:29:21;11.73;;;4.85;;
35257;SDS011;21385;50.878;8.050;2023-03-04T01:31:47;6.93;;;4.72;;
35257;SDS011;21385;50.878;8.050;2023-03-04T01:34:13;6.90;;;5.03;;
35257;SDS011;21385;50.878;8.050;2023-03-04T01:36:38;9.80;;;5.63;;
35257;SDS011;21385;50.878;8.050;2023-03-04T01:39:04;7.47;;;4.90;;
35257;SDS011;21385;50.878;8.050;2023-03-04T01:41:30;8.35;;;4.60;;
35257;SDS011;21385;50.878;8.050;2023-03-04T01:43:56;11.35;;;5.07;;
35257;SDS011;21385;50.878;8.050;2023-03-04T01:46:25;8.85;;;4.72;;
35257;SDS011;21385;50.878;8.050;2023-03-04T01:48:51;18.77;;;7.10;;
35257;SDS011;21385;50.878;8.050;2023-03-04T01:51:17;8.15;;;4.85;;
35257;SDS011;21385;50.878;8.050;2023-03-04T01:53:45;6.63;;;5.28;;
35257;SDS011;21385;50.878;8.050;2023-03-04T01:59:29;8.75;;;4.50;;
35257;SDS011;21385;50.878;8.050;2023-03-04T02:01:56;5.15;;;3.78;;
35257;SDS011;21385;50.878;8.050;2023-03-04T02:04:25;8.63;;;3.55;;
35257;SDS011;21385;50.878;8.050;2023-03-04T02:06:53;6.60;;;3.88;;
35257;SDS011;21385;50.878;8.050;2023-03-04T02:09:20;19.27;;;5.63;;
35257;SDS011;21385;50.878;8.050;2023-03-04T02:11:46;10.80;;;5.38;;
35257;SDS011;21385;50.878;8.050;2023-03-04T02:14:13;8.15;;;4.25;;
35257;SDS011;21385;50.878;8.050;2023-03-04T02:16:40;8.50;;;4.20;;
35257;SDS011;21385;50.878;8.050;2023-03-04T02:19:07;6.70;;;5.85;;
35257;SDS011;21385;50.878;8.050;2023-03-04T02:21:43;5.50;;;4.43;;
35257;SDS011;21385;50.878;8.050;2023-03-04T02:26:46;9.07;;;7.20;;
35257;SDS011;21385;50.878;8.050;2023-03-04T02:29:13;7.22;;;5.20;;
35257;SDS011;21385;50.878;8.050;2023-03-04T02:31:44;10.18;;;5.72;;
35257;SDS011;21385;50.878;8.050;2023-03-04T02:34:16;6.38;;;5.00;;
35257;SDS011;21385;50.878;8.050;2023-03-04T02:36:44;8.40;;;5.43;;
35257;SDS011;21385;50.878;8.050;2023-03-04T02:39:13;13.93;;;3.97;;
35257;SDS011;21385;50.878;8.050;2023-03-04T02:41:55;11.10;;;5.82;;
35257;SDS011;21385;50.878;8.050;2023-03-04T02:46:59;10.32;;;3.88;;
35257;SDS011;21385;50.878;8.050;2023-03-04T02:49:26;4.60;;;3.83;;
35257;SDS011;21385;50.878;8.050;2023-03-04T02:52:07;7.97;;;5.10;;
35257;SDS011;21385;50.878;8.050;2023-03-04T02:54:41;4.50;;;3.35;;
35257;SDS011;21385;50.878;8.050;2023-03-04T02:57:08;3.42;;;2.55;;
35257;SDS011;21385;50.878;8.050;2023-03-04T02:59:35;5.60;;;2.70;;
35257;SDS011;21385;50.878;8.050;2023-03-04T03:02:02;5.72;;;4.53;;
35257;SDS011;21385;50.878;8.050;2023-03-04T03:04:28;2.47;;;2.35;;
35257;SDS011;21385;50.878;8.050;2023-03-04T03:06:54;6.53;;;3.40;;
35257;SDS011;21385;50.878;8.050;2023-03-04T03:09:20;4.57;;;4.10;;
35257;SDS011;21385;50.878;8.050;2023-03-04T03:11:46;18.00;;;5.68;;
35257;SDS011;21385;50.878;8.050;2023-03-04T03:14:11;3.42;;;3.13;;
35257;SDS011;21385;50.878;8.050;2023-03-04T03:16:37;3.38;;;2.97;;
35257;SDS011;21385;50.878;8.050;2023-03-04T03:19:03;4.90;;;3.40;;
35257;SDS011;21385;50.878;8.050;2023-03-04T03:21:28;4.32;;;3.90;;
35257;SDS011;21385;50.878;8.050;2023-03-04T03:23:54;4.57;;;2.47;;
35257;SDS011;21385;50.878;8.050;2023-03-04T03:26:19;2.97;;;2.53;;
35257;SDS011;21385;50.878;8.050;2023-03-04T03:28:45;10.18;;;3.80;;
35257;SDS011;21385;50.878;8.050;2023-03-04T03:31:11;3.30;;;2.83;;
35257;SDS011;21385;50.878;8.050;2023-03-04T03:33:37;3.13;;;2.70;;
35257;SDS011;21385;50.878;8.050;2023-03-04T03:36:02;4.68;;;3.38;;
35257;SDS011;21385;50.878;8.050;2023-03-04T03:38:28;3.70;;;2.92;;
35257;SDS011;21385;50.878;8.050;2023-03-04T03:40:54;3.47;;;3.17;;
35257;SDS011;21385;50.878;8.050;2023-03-04T03:43:19;8.43;;;3.78;;
35257;SDS011;21385;50.878;8.050;2023-03-04T03:45:45;5.22;;;2.70;;
35257;SDS011;21385;50.878;8.050;2023-03-04T03:48:11;6.32;;;3.08;;
35257;SDS011;21385;50.878;8.050;2023-03-04T03:50:36;3.45;;;2.67;;
35257;SDS011;21385;50.878;8.050;2023-03-04T03:53:03;3.85;;;2.92;;
35257;SDS011;21385;50.878;8.050;2023-03-04T03:55:28;3.20;;;2.92;;
35257;SDS011;21385;50.878;8.050;2023-03-04T03:57:54;4.47;;;3.95;;
35257;SDS011;21385;50.878;8.050;2023-03-04T04:00:19;5.20;;;2.95;;
35257;SDS011;21385;50.878;8.050;2023-03-04T04:02:45;5.78;;;2.95;;
35257;SDS011;21385;50.878;8.050;2023-03-04T04:05:11;10.98;;;3.70;;
35257;SDS011;21385;50.878;8.050;2023-03-04T04:07:37;3.22;;;2.92;;
35257;SDS011;21385;50.878;8.050;2023-03-04T04:10:03;3.00;;;2.53;;
35257;SDS011;21385;50.878;8.050;2023-03-04T04:12:30;8.10;;;2.67;;
35257;SDS011;21385;50.878;8.050;2023-03-04T04:14:56;5.20;;;3.33;;
35257;SDS011;21385;50.878;8.050;2023-03-04T04:17:21;4.82;;;3.45;;
35257;SDS011;21385;50.878;8.050;2023-03-04T04:19:47;6.50;;;2.38;;
35257;SDS011;21385;50.878;8.050;2023-03-04T04:22:14;5.55;;;3.38;;
35257;SDS011;21385;50.878;8.050;2023-03-04T04:24:41;2.35;;;2.15;;
35257;SDS011;21385;50.878;8.050;2023-03-04T04:27:06;6.60;;;3.13;;
35257;SDS011;21385;50.878;8.050;2023-03-04T04:29:32;3.05;;;2.42;;
35257;SDS011;21385;50.878;8.050;2023-03-04T04:31:58;1.77;;;1.67;;
35257;SDS011;21385;50.878;8.050;2023-03-04T04:34:24;2.25;;;2.13;;
35257;SDS011;21385;50.878;8.050;2023-03-04T04:36:50;7.95;;;3.10;;
35257;SDS011;21385;50.878;8.050;2023-03-04T04:39:16;10.55;;;3.55;;
35257;SDS011;21385;50.878;8.050;2023-03-04T04:41:42;3.65;;;2.72;;
35257;SDS011;21385;50.878;8.050;2023-03-04T04:44:10;3.03;;;2.65;;
35257;SDS011;21385;50.878;8.050;2023-03-04T04:46:37;5.32;;;3.60;;
35257;SDS011;21385;50.878;8.050;2023-03-04T04:49:03;2.60;;;1.67;;
35257;SDS011;21385;50.878;8.050;2023-03-04T04:51:29;2.50;;;1.85;;
35257;SDS011;21385;50.878;8.050;2023-03-04T04:53:55;2.63;;;2.42;;
35257;SDS011;21385;50.878;8.050;2023-03-04T04:56:22;3.47;;;2.03;;
35257;SDS011;21385;50.878;8.050;2023-03-04T04:58:52;2.67;;;2.47;;
35257;SDS011;21385;50.878;8.050;2023-03-04T05:01:20;5.10;;;2.78;;
35257;SDS011;21385;50.878;8.050;2023-03-04T05:03:46;3.50;;;2.03;;
35257;SDS011;21385;50.878;8.050;2023-03-04T05:06:13;4.10;;;2.75;;
35257;SDS011;21385;50.878;8.050;2023-03-04T05:08:39;5.85;;;2.70;;
35257;SDS011;21385;50.878;8.050;2023-03-04T05:11:05;26.63;;;3.47;;
35257;SDS011;21385;50.878;8.050;2023-03-04T05:13:31;2.78;;;2.03;;
35257;SDS011;21385;50.878;8.050;2023-03-04T05:15:57;1.63;;;1.38;;
35257;SDS011;21385;50.878;8.050;2023-03-04T05:18:24;9.70;;;3.58;;
35257;SDS011;21385;50.878;8.050;2023-03-04T05:20:55;5.35;;;3.92;;
35257;SDS011;21385;50.878;8.050;2023-03-04T05:23:23;12.75;;;2.97;;
35257;SDS011;21385;50.878;8.050;2023-03-04T05:25:49;4.47;;;1.85;;
35257;SDS011;21385;50.878;8.050;2023-03-04T05:28:15;3.40;;;2.85;;
35257;SDS011;21385;50.878;8.050;2023-03-04T05:30:42;6.18;;;2.50;;
35257;SDS011;21385;50.878;8.050;2023-03-04T05:33:08;8.18;;;3.03;;
35257;SDS011;21385;50.878;8.050;2023-03-04T05:35:36;2.13;;;1.92;;
35257;SDS011;21385;50.878;8.050;2023-03-04T05:38:04;3.90;;;2.78;;
35257;SDS011;21385;50.878;8.050;2023-03-04T05:40:32;6.18;;;2.30;;
35257;SDS011;21385;50.878;8.050;2023-03-04T05:42:58;3.25;;;2.65;;
35257;SDS011;21385;50.878;8.050;2023-03-04T05:45:24;3.63;;;2.38;;
35257;SDS011;21385;50.878;8.050;2023-03-04T05:47:52;6.57;;;3.08;;
35257;SDS011;21385;50.878;8.050;2023-03-04T05:50:18;12.32;;;3.05;;
35257;SDS011;21385;50.878;8.050;2023-03-04T05:52:45;4.47;;;2.22;;
35257;SDS011;21385;50.878;8.050;2023-03-04T05:55:11;8.32;;;2.38;;
35257;SDS011;21385;50.878;8.050;2023-03-04T05:57:36;4.55;;;1.65;;
35257;SDS011;21385;50.878;8.050;2023-03-04T06:00:02;15.88;;;3.38;;
35257;SDS011;21385;50.878;8.050;2023-03-04T06:02:29;21.90;;;3.40;;
35257;SDS011;21385;50.878;8.050;2023-03-04T06:04:55;4.03;;;2.63;;
35257;SDS011;21385;50.878;8.050;2023-03-04T06:07:20;13.52;;;3.05;;
35257;SDS011;21385;50.878;8.050;2023-03-04T06:09:46;10.18;;;3.10;;
35257;SDS011;21385;50.878;8.050;2023-03-04T06:12:11;16.60;;;3.45;;
35257;SDS011;21385;50.878;8.050;2023-03-04T06:14:37;7.60;;;3.10;;
35257;SDS011;21385;50.878;8.050;2023-03-04T06:17:03;3.72;;;2.05;;
35257;SDS011;21385;50.878;8.050;2023-03-04T06:19:29;4.07;;;3.15;;
35257;SDS011;21385;50.878;8.050;2023-03-04T06:21:54;3.03;;;2.08;;
35257;SDS011;21385;50.878;8.050;2023-03-04T06:24:20;3.13;;;2.25;;
35257;SDS011;21385;50.878;8.050;2023-03-04T06:26:45;10.52;;;2.78;;
35257;SDS011;21385;50.878;8.050;2023-03-04T06:29:11;6.82;;;1.80;;
35257;SDS011;21385;50.878;8.050;2023-03-04T06:31:37;19.30;;;2.40;;
35257;SDS011;21385;50.878;8.050;2023-03-04T06:34:03;7.88;;;3.08;;
35257;SDS011;21385;50.878;8.050;2023-03-04T06:36:29;3.13;;;2.30;;
35257;SDS011;21385;50.878;8.050;2023-03-04T06:38:54;2.83;;;1.98;;
35257;SDS011;21385;50.878;8.050;2023-03-04T06:41:20;11.43;;;3.13;;
35257;SDS011;21385;50.878;8.050;2023-03-04T06:43:45;14.05;;;3.30;;
35257;SDS011;21385;50.878;8.050;2023-03-04T06:46:11;6.70;;;2.03;;
35257;SDS011;21385;50.878;8.050;2023-03-04T06:48:36;2.63;;;2.40;;
35257;SDS011;21385;50.878;8.050;2023-03-04T06:51:09;3.22;;;1.60;;
35257;SDS011;21385;50.878;8.050;2023-03-04T06:53:36;2.33;;;2.10;;
35257;SDS011;21385;50.878;8.050;2023-03-04T06:56:02;5.07;;;2.03;;
35257;SDS011;21385;50.878;8.050;2023-03-04T06:58:28;3.90;;;2.50;;
35257;SDS011;21385;50.878;8.050;2023-03-04T07:00:54;5.40;;;2.00;;
35257;SDS011;21385;50.878;8.050;2023-03-04T07:03:20;0.85;;;0.85;;
35257;SDS011;21385;50.878;8.050;2023-03-04T07:05:46;1.48;;;1.38;;
35257;SDS011;21385;50.878;8.050;2023-03-04T07:08:11;6.20;;;1.73;;
35257;SDS011;21385;50.878;8.050;2023-03-04T07:10:37;1.92;;;1.83;;
35257;SDS011;21385;50.878;8.050;2023-03-04T07:13:03;2.72;;;1.27;;
35257;SDS011;21385;50.878;8.050;2023-03-04T07:15:28;11.30;;;2.70;;
35257;SDS011;21385;50.878;8.050;2023-03-04T07:17:54;3.80;;;0.98;;
35257;SDS011;21385;50.878;8.050;2023-03-04T07:20:20;1.92;;;1.67;;
35257;SDS011;21385;50.878;8.050;2023-03-04T07:22:46;1.23;;;1.13;;
35257;SDS011;21385;50.878;8.050;2023-03-04T07:25:11;1.48;;;1.38;;
35257;SDS011;21385;50.878;8.050;2023-03-04T07:27:37;40.88;;;3.08;;
35257;SDS011;21385;50.878;8.050;2023-03-04T07:30:04;17.02;;;1.65;;
35257;SDS011;21385;50.878;8.050;2023-03-04T07:32:31;2.05;;;1.85;;
35257;SDS011;21385;50.878;8.050;2023-03-04T07:34:58;4.82;;;2.10;;
35257;SDS011;21385;50.878;8.050;2023-03-04T07:37:24;13.27;;;1.42;;
35257;SDS011;21385;50.878;8.050;2023-03-04T07:39:49;1.50;;;1.40;;
35257;SDS011;21385;50.878;8.050;2023-03-04T07:42:15;5.70;;;1.80;;
35257;SDS011;21385;50.878;8.050;2023-03-04T07:44:41;2.08;;;1.98;;
35257;SDS011;21385;50.878;8.050;2023-03-04T07:47:06;2.50;;;1.33;;
35257;SDS011;21385;50.878;8.050;2023-03-04T07:49:32;8.73;;;3.13;;
35257;SDS011;21385;50.878;8.050;2023-03-04T07:51:57;4.35;;;1.88;;
35257;SDS011;21385;50.878;8.050;2023-03-04T07:54:26;7.82;;;1.80;;
35257;SDS011;21385;50.878;8.050;2023-03-04T07:56:52;8.43;;;1.73;;
35257;SDS011;21385;50.878;8.050;2023-03-04T07:59:17;1.63;;;1.52;;
35257;SDS011;21385;50.878;8.050;2023-03-04T08:01:43;2.58;;;1.27;;
35257;SDS011;21385;50.878;8.050;2023-03-04T08:04:08;1.20;;;0.85;;
35257;SDS011;21385;50.878;8.050;2023-03-04T08:06:34;1.00;;;0.98;;
35257;SDS011;21385;50.878;8.050;2023-03-04T08:09:04;8.55;;;2.47;;
35257;SDS011;21385;50.878;8.050;2023-03-04T08:11:31;14.88;;;3.03;;
35257;SDS011;21385;50.878;8.050;2023-03-04T08:13:58;2.38;;;1.48;;
35257;SDS011;21385;50.878;8.050;2023-03-04T08:16:23;3.45;;;0.77;;
35257;SDS011;21385;50.878;8.050;2023-03-04T08:18:50;4.97;;;1.35;;
35257;SDS011;21385;50.878;8.050;2023-03-04T08:21:18;0.70;;;0.55;;
35257;SDS011;21385;50.878;8.050;2023-03-04T08:23:45;3.20;;;1.35;;
35257;SDS011;21385;50.878;8.050;2023-03-04T08:26:13;11.68;;;2.58;;
35257;SDS011;21385;50.878;8.050;2023-03-04T08:28:52;7.22;;;1.33;;
35257;SDS011;21385;50.878;8.050;2023-03-04T08:31:18;2.78;;;1.40;;
35257;SDS011;21385;50.878;8.050;2023-03-04T08:33:44;0.82;;;0.82;;
35257;SDS011;21385;50.878;8.050;2023-03-04T08:36:10;1.00;;;0.75;;
35257;SDS011;21385;50.878;8.050;2023-03-04T08:38:37;0.50;;;0.50;;
35257;SDS011;21385;50.878;8.050;2023-03-04T08:41:03;0.68;;;0.68;;
35257;SDS011;21385;50.878;8.050;2023-03-04T08:43:29;3.58;;;1.70;;
35257;SDS011;21385;50.878;8.050;2023-03-04T08:45:55;2.08;;;1.55;;
35257;SDS011;21385;50.878;8.050;2023-03-04T08:48:21;2.22;;;2.03;;
35257;SDS011;21385;50.878;8.050;2023-03-04T08:50:48;5.53;;;1.40;;
35257;SDS011;21385;50.878;8.050;2023-03-04T08:53:14;0.95;;;0.85;;
35257;SDS011;21385;50.878;8.050;2023-03-04T08:55:41;3.35;;;2.92;;
35257;SDS011;21385;50.878;8.050;2023-03-04T08:58:08;2.17;;;1.35;;
35257;SDS011;21385;50.878;8.050;2023-03-04T09:00:35;2.00;;;1.25;;
35257;SDS011;21385;50.878;8.050;2023-03-04T09:03:02;1.60;;;1.50;;
35257;SDS011;21385;50.878;8.050;2023-03-04T09:05:28;1.25;;;1.15;;
35257;SDS011;21385;50.878;8.050;2023-03-04T09:07:54;10.52;;;1.65;;
35257;SDS011;21385;50.878;8.050;2023-03-04T09:10:20;1.05;;;0.90;;
35257;SDS011;21385;50.878;8.050;2023-03-04T09:12:46;6.65;;;1.67;;
35257;SDS011;21385;50.878;8.050;2023-03-04T09:15:12;1.30;;;1.20;;
35257;SDS011;21385;50.878;8.050;2023-03-04T09:17:38;4.88;;;1.23;;
35257;SDS011;21385;50.878;8.050;2023-03-04T09:20:05;1.25;;;0.63;;
35257;SDS011;21385;50.878;8.050;2023-03-04T09:22:34;8.77;;;1.00;;
35257;SDS011;21385;50.878;8.050;2023-03-04T09:25:00;5.72;;;0.65;;
35257;SDS011;21385;50.878;8.050;2023-03-04T09:27:26;1.10;;;0.60;;
35257;SDS011;21385;50.878;8.050;2023-03-04T09:29:51;6.38;;;1.30;;
35257;SDS011;21385;50.878;8.050;2023-03-04T09:32:17;1.27;;;1.17;;
35257;SDS011;21385;50.878;8.050;2023-03-04T09:34:42;2.08;;;0.77;;
35257;SDS011;21385;50.878;8.050;2023-03-04T09:37:08;0.73;;;0.50;;
35257;SDS011;21385;50.878;8.050;2023-03-04T09:39:34;0.50;;;0.50;;
35257;SDS011;21385;50.878;8.050;2023-03-04T09:41:59;4.47;;;1.63;;
35257;SDS011;21385;50.878;8.050;2023-03-04T09:44:27;3.90;;;1.33;;
35257;SDS011;21385;50.878;8.050;2023-03-04T09:46:57;2.28;;;1.25;;
35257;SDS011;21385;50.878;8.050;2023-03-04T09:49:25;10.15;;;1.90;;
35257;SDS011;21385;50.878;8.050;2023-03-04T09:52:02;0.45;;;0.45;;
35257;SDS011;21385;50.878;8.050;2023-03-04T09:57:22;6.93;;;1.23;;
35257;SDS011;21385;50.878;8.050;2023-03-04T10:04:53;2.25;;;0.50;;
35257;SDS011;21385;50.878;8.050;2023-03-04T10:07:27;1.63;;;0.50;;
35257;SDS011;21385;50.878;8.050;2023-03-04T10:10:09;0.63;;;0.38;;
35257;SDS011;21385;50.878;8.050;2023-03-04T10:12:59;8.38;;;1.00;;
35257;SDS011;21385;50.878;8.050;2023-03-04T10:18:17;2.80;;;0.40;;
35257;SDS011;21385;50.878;8.050;2023-03-04T10:23:21;0.52;;;0.50;;
35257;SDS011;21385;50.878;8.050;2023-03-04T10:25:52;0.38;;;0.38;;
35257;SDS011;21385;50.878;8.050;2023-03-04T10:28:30;1.00;;;0.52;;
35257;SDS011;21385;50.878;8.050;2023-03-04T10:33:36;3.83;;;1.23;;
35257;SDS011;21385;50.878;8.050;2023-03-04T10:39:27;1.52;;;1.35;;
35257;SDS011;21385;50.878;8.050;2023-03-04T10:44:26;5.97;;;1.48;;
35257;SDS011;21385;50.878;8.050;2023-03-04T10:46:53;8.23;;;1.92;;
35257;SDS011;21385;50.878;8.050;2023-03-04T10:49:21;1.25;;;1.15;;
35257;SDS011;21385;50.878;8.050;2023-03-04T10:51:59;1.23;;;1.02;;
35257;SDS011;21385;50.878;8.050;2023-03-04T10:54:40;0.63;;;0.63;;
35257;SDS011;21385;50.878;8.050;2023-03-04T10:57:18;1.27;;;0.85;;
35257;SDS011;21385;50.878;8.050;2023-03-04T11:02:29;1.77;;;0.88;;
35257;SDS011;21385;50.878;8.050;2023-03-04T11:07:49;0.65;;;0.65;;
35257;SDS011;21385;50.878;8.050;2023-03-04T11:18:36;3.22;;;1.15;;
35257;SDS011;21385;50.878;8.050;2023-03-04T11:21:05;1.23;;;0.85;;
35257;SDS011;21385;50.878;8.050;2023-03-04T11:23:38;1.40;;;0.93;;
35257;SDS011;21385;50.878;8.050;2023-03-04T11:26:11;0.20;;;0.20;;
35257;SDS011;21385;50.878;8.050;2023-03-04T11:28:43;0.60;;;0.60;;
35257;SDS011;21385;50.878;8.050;2023-03-04T11:31:23;6.15;;;0.47;;
35257;SDS011;21385;50.878;8.050;2023-03-04T11:33:57;5.05;;;0.98;;
35257;SDS011;21385;50.878;8.050;2023-03-04T11:39:37;1.65;;;1.15;;
35257;SDS011;21385;50.878;8.050;2023-03-04T11:45:16;1.70;;;1.13;;
35257;SDS011;21385;50.878;8.050;2023-03-04T11:50:36;3.30;;;0.75;;
35257;SDS011;21385;50.878;8.050;2023-03-04T11:53:36;0.32;;;0.32;;
35257;SDS011;21385;50.878;8.050;2023-03-04T12:01:34;0.30;;;0.30;;
35257;SDS011;21385;50.878;8.050;2023-03-04T12:12:29;1.13;;;0.93;;
35257;SDS011;21385;50.878;8.050;2023-03-04T12:15:25;0.30;;;0.22;;
35257;SDS011;21385;50.878;8.050;2023-03-04T12:17:59;0.70;;;0.70;;
35257;SDS011;21385;50.878;8.050;2023-03-04T12:43:07;0.60;;;0.60;;
35257;SDS011;21385;50.878;8.050;2023-03-04T12:56:53;1.98;;;1.30;;
35257;SDS011;21385;50.878;8.050;2023-03-04T12:59:23;1.23;;;1.13;;
35257;SDS011;21385;50.878;8.050;2023-03-04T13:01:55;2.25;;;1.23;;
35257;SDS011;21385;50.878;8.050;2023-03-04T13:12:45;3.10;;;0.68;;
35257;SDS011;21385;50.878;8.050;2023-03-04T13:25:45;1.00;;;0.88;;
35257;SDS011;21385;50.878;8.050;2023-03-04T13:28:22;0.90;;;0.75;;
35257;SDS011;21385;50.878;8.050;2023-03-04T13:31:05;4.25;;;1.15;;
35257;SDS011;21385;50.878;8.050;2023-03-04T13:36:00;0.98;;;0.80;;
35257;SDS011;21385;50.878;8.050;2023-03-04T13:47:08;0.80;;;0.80;;
35257;SDS011;21385;50.878;8.050;2023-03-04T13:49:41;0.75;;;0.47;;
35257;SDS011;21385;50.878;8.050;2023-03-04T13:57:56;1.45;;;0.90;;
35257;SDS011;21385;50.878;8.050;2023-03-04T14:00:22;0.90;;;0.80;;
35257;SDS011;21385;50.878;8.050;2023-03-04T14:02:49;0.32;;;0.32;;
35257;SDS011;21385;50.878;8.050;2023-03-04T14:05:15;2.95;;;0.75;;
35257;SDS011;21385;50.878;8.050;2023-03-04T14:07:40;0.73;;;0.70;;
35257;SDS011;21385;50.878;8.050;2023-03-04T14:10:07;0.20;;;0.20;;
35257;SDS011;21385;50.878;8.050;2023-03-04T14:12:49;0.43;;;0.43;;
35257;SDS011;21385;50.878;8.050;2023-03-04T14:15:24;0.63;;;0.45;;
35257;SDS011;21385;50.878;8.050;2023-03-04T14:17:51;1.40;;;1.10;;
35257;SDS011;21385;50.878;8.050;2023-03-04T14:20:26;0.65;;;0.65;;
35257;SDS011;21385;50.878;8.050;2023-03-04T14:22:52;0.55;;;0.55;;
35257;SDS011;21385;50.878;8.050;2023-03-04T14:27:44;1.23;;;1.15;;
35257;SDS011;21385;50.878;8.050;2023-03-04T14:30:28;0.77;;;0.77;;
35257;SDS011;21385;50.878;8.050;2023-03-04T14:32:56;0.60;;;0.60;;
35257;SDS011;21385;50.878;8.050;2023-03-04T14:35:24;1.35;;;1.15;;
35257;SDS011;21385;50.878;8.050;2023-03-04T14:37:57;1.45;;;0.98;;
35257;SDS011;21385;50.878;8.050;2023-03-04T14:40:51;3.05;;;0.75;;
35257;SDS011;21385;50.878;8.050;2023-03-04T14:43:21;2.38;;;1.70;;
35257;SDS011;21385;50.878;8.050;2023-03-04T14:45:49;10.77;;;1.25;;
35257;SDS011;21385;50.878;8.050;2023-03-04T14:48:21;2.22;;;2.13;;
35257;SDS011;21385;50.878;8.050;2023-03-04T14:50:54;2.88;;;1.70;;
35257;SDS011;21385;50.878;8.050;2023-03-04T14:53:22;3.05;;;1.83;;
35257;SDS011;21385;50.878;8.050;2023-03-04T14:58:26;3.30;;;2.05;;
35257;SDS011;21385;50.878;8.050;2023-03-04T15:01:15;1.92;;;1.60;;
35257;SDS011;21385;50.878;8.050;2023-03-04T15:03:45;2.08;;;1.92;;
35257;SDS011;21385;50.878;8.050;2023-03-04T15:06:23;2.75;;;2.00;;
35257;SDS011;21385;50.878;8.050;2023-03-04T15:09:16;2.88;;;1.70;;
35257;SDS011;21385;50.878;8.050;2023-03-04T15:11:50;3.58;;;2.13;;
35257;SDS011;21385;50.878;8.050;2023-03-04T15:14:39;4.60;;;2.38;;
35257;SDS011;21385;50.878;8.050;2023-03-04T15:20:02;4.25;;;3.38;;
35257;SDS011;21385;50.878;8.050;2023-03-04T15:22:31;3.03;;;2.72;;
35257;SDS011;21385;50.878;8.050;2023-03-04T15:25:01;8.13;;;4.85;;
35257;SDS011;21385;50.878;8.050;2023-03-04T15:27:28;20.70;;;11.50;;
35257;SDS011;21385;50.878;8.050;2023-03-04T15:29:56;30.63;;;14.88;;
35257;SDS011;21385;50.878;8.050;2023-03-04T15:32:25;5.20;;;3.33;;
35257;SDS011;21385;50.878;8.050;2023-03-04T15:34:51;5.70;;;5.10;;
35257;SDS011;21385;50.878;8.050;2023-03-04T15:37:17;11.30;;;9.35;;
35257;SDS011;21385;50.878;8.050;2023-03-04T15:39:51;12.13;;;7.03;;
35257;SDS011;21385;50.878;8.050;2023-03-04T15:42:17;20.30;;;11.05;;
35257;SDS011;21385;50.878;8.050;2023-03-04T15:44:43;16.08;;;10.27;;
35257;SDS011;21385;50.878;8.050;2023-03-04T15:47:09;8.77;;;6.70;;
35257;SDS011;21385;50.878;8.050;2023-03-04T15:49:38;17.15;;;11.63;;
35257;SDS011;21385;50.878;8.050;2023-03-04T15:52:05;17.02;;;7.55;;
35257;SDS011;21385;50.878;8.050;2023-03-04T15:54:31;10.80;;;7.05;;
35257;SDS011;21385;50.878;8.050;2023-03-04T15:56:57;19.50;;;7.50;;
35257;SDS011;21385;50.878;8.050;2023-03-04T15:59:24;8.43;;;5.13;;
35257;SDS011;21385;50.878;8.050;2023-03-04T16:01:50;6.32;;;4.88;;
35257;SDS011;21385;50.878;8.050;2023-03-04T16:04:16;15.73;;;6.30;;
35257;SDS011;21385;50.878;8.050;2023-03-04T16:06:42;37.22;;;15.32;;
35257;SDS011;21385;50.878;8.050;2023-03-04T16:09:10;8.93;;;4.57;;
35257;SDS011;21385;50.878;8.050;2023-03-04T16:11:39;7.65;;;5.45;;
35257;SDS011;21385;50.878;8.050;2023-03-04T16:14:08;27.50;;;12.77;;
35257;SDS011;21385;50.878;8.050;2023-03-04T16:16:35;11.75;;;6.53;;
35257;SDS011;21385;50.878;8.050;2023-03-04T16:19:00;11.35;;;6.82;;
35257;SDS011;21385;50.878;8.050;2023-03-04T16:21:26;8.90;;;5.78;;
35257;SDS011;21385;50.878;8.050;2023-03-04T16:23:52;9.63;;;5.28;;
35257;SDS011;21385;50.878;8.050;2023-03-04T16:26:22;12.35;;;6.88;;
35257;SDS011;21385;50.878;8.050;2023-03-04T16:28:49;6.38;;;4.82;;
35257;SDS011;21385;50.878;8.050;2023-03-04T16:31:15;6.22;;;5.05;;
35257;SDS011;21385;50.878;8.050;2023-03-04T16:33:41;7.13;;;4.38;;
35257;SDS011;21385;50.878;8.050;2023-03-04T16:36:14;3.80;;;3.47;;
35257;SDS011;21385;50.878;8.050;2023-03-04T16:38:43;7.57;;;3.65;;
35257;SDS011;21385;50.878;8.050;2023-03-04T16:41:10;18.17;;;4.68;;
35257;SDS011;21385;50.878;8.050;2023-03-04T16:43:39;9.95;;;6.35;;
35257;SDS011;21385;50.878;8.050;2023-03-04T16:46:05;9.60;;;5.18;;
35257;SDS011;21385;50.878;8.050;2023-03-04T16:48:31;7.40;;;4.65;;
35257;SDS011;21385;50.878;8.050;2023-03-04T16:50:57;13.40;;;4.15;;
35257;SDS011;21385;50.878;8.050;2023-03-04T16:53:34;4.55;;;4.15;;
35257;SDS011;21385;50.878;8.050;2023-03-04T16:56:05;3.70;;;3.28;;
35257;SDS011;21385;50.878;8.050;2023-03-04T16:58:34;6.03;;;4.05;;
35257;SDS011;21385;50.878;8.050;2023-03-04T17:01:00;4.97;;;4.15;;
35257;SDS011;21385;50.878;8.050;2023-03-04T17:03:26;4.25;;;3.88;;
35257;SDS011;21385;50.878;8.050;2023-03-04T17:05:52;5.70;;;5.00;;
35257;SDS011;21385;50.878;8.050;2023-03-04T17:08:17;18.30;;;6.60;;
35257;SDS011;21385;50.878;8.050;2023-03-04T17:10:43;10.10;;;7.03;;
35257;SDS011;21385;50.878;8.050;2023-03-04T17:13:08;8.55;;;6.93;;
35257;SDS011;21385;50.878;8.050;2023-03-04T17:15:34;5.78;;;4.38;;